sensor_id;sensor_type;location;lat;lon;timestamp;P1;durP1;ratioP1;P2;durP2;ratioP2
7205;SDS011;3644;53.480;10.004;2023-10-31T00:01:10;8.40;;;4.77;;
7205;SDS011;3644;53.480;10.004;2023-10-31T00:03:36;6.90;;;4.40;;
7205;SDS011;3644;53.480;10.004;2023-10-31T00:06:01;4.80;;;3.97;;
7205;SDS011;3644;53.480;10.004;2023-10-31T00:08:27;6.70;;;4.40;;
7205;SDS011;3644;53.480;10.004;2023-10-31T00:10:52;5.63;;;4.57;;
7205;SDS011;3644;53.480;10.004;2023-10-31T00:13:18;9.60;;;4.47;;
7205;SDS011;3644;53.480;10.004;2023-10-31T00:15:43;10.30;;;4.80;;
7205;SDS011;3644;53.480;10.004;2023-10-31T00:18:09;4.60;;;4.20;;
7205;SDS011;3644;53.480;10.004;2023-10-31T00:20:34;8.85;;;4.78;;
7205;SDS011;3644;53.480;10.004;2023-10-31T00:23:00;11.97;;;5.60;;
7205;SDS011;3644;53.480;10.004;2023-10-31T00:25:25;6.03;;;5.17;;
7205;SDS011;3644;53.480;10.004;2023-10-31T00:27:51;7.00;;;5.10;;
7205;SDS011;3644;53.480;10.004;2023-10-31T00:30:16;8.50;;;4.37;;
7205;SDS011;3644;53.480;10.004;2023-10-31T00:32:42;11.93;;;5.30;;
7205;SDS011;3644;53.480;10.004;2023-10-31T00:35:08;5.00;;;4.47;;
7205;SDS011;3644;53.480;10.004;2023-10-31T00:37:34;5.60;;;4.90;;
7205;SDS011;3644;53.480;10.004;2023-10-31T00:39:59;9.10;;;5.70;;
7205;SDS011;3644;53.480;10.004;2023-10-31T00:42:25;10.73;;;5.07;;
7205;SDS011;3644;53.480;10.004;2023-10-31T00:44:50;5.60;;;4.10;;
7205;SDS011;3644;53.480;10.004;2023-10-31T00:47:15;10.50;;;5.00;;
7205;SDS011;3644;53.480;10.004;2023-10-31T00:49:42;10.60;;;5.27;;
7205;SDS011;3644;53.480;10.004;2023-10-31T00:52:08;10.10;;;5.47;;
7205;SDS011;3644;53.480;10.004;2023-10-31T00:54:33;7.60;;;4.20;;
7205;SDS011;3644;53.480;10.004;2023-10-31T00:56:59;6.80;;;4.30;;
7205;SDS011;3644;53.480;10.004;2023-10-31T00:59:25;6.33;;;4.60;;
7205;SDS011;3644;53.480;10.004;2023-10-31T01:01:50;7.03;;;4.60;;
7205;SDS011;3644;53.480;10.004;2023-10-31T01:04:16;11.23;;;4.10;;
7205;SDS011;3644;53.480;10.004;2023-10-31T01:06:41;6.80;;;4.70;;
7205;SDS011;3644;53.480;10.004;2023-10-31T01:09:08;4.60;;;4.20;;
7205;SDS011;3644;53.480;10.004;2023-10-31T01:11:34;7.17;;;4.90;;
7205;SDS011;3644;53.480;10.004;2023-10-31T01:13:59;4.90;;;4.13;;
7205;SDS011;3644;53.480;10.004;2023-10-31T01:16:25;7.97;;;4.87;;
7205;SDS011;3644;53.480;10.004;2023-10-31T01:18:50;5.50;;;4.83;;
7205;SDS011;3644;53.480;10.004;2023-10-31T01:21:16;5.40;;;4.20;;
7205;SDS011;3644;53.480;10.004;2023-10-31T01:23:41;13.40;;;5.03;;
7205;SDS011;3644;53.480;10.004;2023-10-31T01:26:07;7.13;;;4.90;;
7205;SDS011;3644;53.480;10.004;2023-10-31T01:28:32;8.20;;;4.20;;
7205;SDS011;3644;53.480;10.004;2023-10-31T01:30:58;13.13;;;3.83;;
7205;SDS011;3644;53.480;10.004;2023-10-31T01:33:23;7.07;;;4.63;;
7205;SDS011;3644;53.480;10.004;2023-10-31T01:35:49;8.93;;;4.87;;
7205;SDS011;3644;53.480;10.004;2023-10-31T01:38:14;5.93;;;4.50;;
7205;SDS011;3644;53.480;10.004;2023-10-31T01:40:40;7.60;;;4.50;;
7205;SDS011;3644;53.480;10.004;2023-10-31T01:43:05;6.30;;;4.47;;
7205;SDS011;3644;53.480;10.004;2023-10-31T01:45:31;5.03;;;4.50;;
7205;SDS011;3644;53.480;10.004;2023-10-31T01:47:56;7.03;;;4.03;;
7205;SDS011;3644;53.480;10.004;2023-10-31T01:50:23;5.50;;;5.03;;
7205;SDS011;3644;53.480;10.004;2023-10-31T01:52:49;8.13;;;5.63;;
7205;SDS011;3644;53.480;10.004;2023-10-31T01:55:16;6.37;;;4.87;;
7205;SDS011;3644;53.480;10.004;2023-10-31T01:57:43;4.90;;;4.00;;
7205;SDS011;3644;53.480;10.004;2023-10-31T02:00:10;5.30;;;4.13;;
7205;SDS011;3644;53.480;10.004;2023-10-31T02:02:37;8.27;;;4.80;;
7205;SDS011;3644;53.480;10.004;2023-10-31T02:05:07;12.27;;;4.07;;
7205;SDS011;3644;53.480;10.004;2023-10-31T02:07:33;5.87;;;4.93;;
7205;SDS011;3644;53.480;10.004;2023-10-31T02:09:58;5.40;;;3.90;;
7205;SDS011;3644;53.480;10.004;2023-10-31T02:12:33;10.50;;;4.20;;
7205;SDS011;3644;53.480;10.004;2023-10-31T02:15:00;4.57;;;4.17;;
7205;SDS011;3644;53.480;10.004;2023-10-31T02:17:25;7.20;;;4.17;;
7205;SDS011;3644;53.480;10.004;2023-10-31T02:19:51;4.40;;;4.00;;
7205;SDS011;3644;53.480;10.004;2023-10-31T02:22:16;7.93;;;4.70;;
7205;SDS011;3644;53.480;10.004;2023-10-31T02:24:42;6.50;;;4.77;;
7205;SDS011;3644;53.480;10.004;2023-10-31T02:27:07;6.63;;;4.73;;
7205;SDS011;3644;53.480;10.004;2023-10-31T02:29:33;8.03;;;4.80;;
7205;SDS011;3644;53.480;10.004;2023-10-31T02:31:58;5.77;;;5.17;;
7205;SDS011;3644;53.480;10.004;2023-10-31T02:34:24;5.93;;;4.20;;
7205;SDS011;3644;53.480;10.004;2023-10-31T02:36:51;5.83;;;4.40;;
7205;SDS011;3644;53.480;10.004;2023-10-31T02:39:16;11.67;;;4.50;;
7205;SDS011;3644;53.480;10.004;2023-10-31T02:41:42;8.03;;;4.80;;
7205;SDS011;3644;53.480;10.004;2023-10-31T02:44:08;13.87;;;4.70;;
7205;SDS011;3644;53.480;10.004;2023-10-31T02:46:37;7.47;;;5.03;;
7205;SDS011;3644;53.480;10.004;2023-10-31T02:49:03;6.07;;;4.50;;
7205;SDS011;3644;53.480;10.004;2023-10-31T02:51:28;9.27;;;5.57;;
7205;SDS011;3644;53.480;10.004;2023-10-31T02:53:54;4.70;;;4.30;;
7205;SDS011;3644;53.480;10.004;2023-10-31T02:56:19;5.50;;;4.30;;
7205;SDS011;3644;53.480;10.004;2023-10-31T02:58:45;11.67;;;5.50;;
7205;SDS011;3644;53.480;10.004;2023-10-31T03:01:10;6.37;;;4.97;;
7205;SDS011;3644;53.480;10.004;2023-10-31T03:03:36;15.50;;;4.93;;
7205;SDS011;3644;53.480;10.004;2023-10-31T03:06:02;6.17;;;4.70;;
7205;SDS011;3644;53.480;10.004;2023-10-31T03:08:27;6.87;;;4.90;;
7205;SDS011;3644;53.480;10.004;2023-10-31T03:10:53;12.60;;;5.10;;
7205;SDS011;3644;53.480;10.004;2023-10-31T03:13:18;6.43;;;5.03;;
7205;SDS011;3644;53.480;10.004;2023-10-31T03:15:45;5.40;;;4.50;;
7205;SDS011;3644;53.480;10.004;2023-10-31T03:18:11;9.57;;;4.43;;
7205;SDS011;3644;53.480;10.004;2023-10-31T03:20:36;7.07;;;5.00;;
7205;SDS011;3644;53.480;10.004;2023-10-31T03:23:02;6.97;;;5.00;;
7205;SDS011;3644;53.480;10.004;2023-10-31T03:25:27;9.00;;;4.53;;
7205;SDS011;3644;53.480;10.004;2023-10-31T03:27:53;5.37;;;4.70;;
7205;SDS011;3644;53.480;10.004;2023-10-31T03:30:18;5.67;;;4.77;;
7205;SDS011;3644;53.480;10.004;2023-10-31T03:32:44;5.57;;;4.50;;
7205;SDS011;3644;53.480;10.004;2023-10-31T03:35:09;5.03;;;4.53;;
7205;SDS011;3644;53.480;10.004;2023-10-31T03:37:35;7.17;;;5.47;;
7205;SDS011;3644;53.480;10.004;2023-10-31T03:40:05;6.83;;;4.60;;
7205;SDS011;3644;53.480;10.004;2023-10-31T03:42:31;6.67;;;5.70;;
7205;SDS011;3644;53.480;10.004;2023-10-31T03:44:56;4.97;;;4.57;;
7205;SDS011;3644;53.480;10.004;2023-10-31T03:47:22;5.07;;;4.57;;
7205;SDS011;3644;53.480;10.004;2023-10-31T03:49:47;7.10;;;4.57;;
7205;SDS011;3644;53.480;10.004;2023-10-31T03:52:13;6.87;;;4.20;;
7205;SDS011;3644;53.480;10.004;2023-10-31T03:54:38;5.30;;;4.13;;
7205;SDS011;3644;53.480;10.004;2023-10-31T03:57:04;5.47;;;4.80;;
7205;SDS011;3644;53.480;10.004;2023-10-31T03:59:29;5.73;;;4.90;;
7205;SDS011;3644;53.480;10.004;2023-10-31T04:01:55;4.50;;;4.00;;
7205;SDS011;3644;53.480;10.004;2023-10-31T04:04:20;7.00;;;4.90;;
7205;SDS011;3644;53.480;10.004;2023-10-31T04:06:46;6.93;;;4.73;;
7205;SDS011;3644;53.480;10.004;2023-10-31T04:09:11;5.50;;;4.40;;
7205;SDS011;3644;53.480;10.004;2023-10-31T04:11:37;6.40;;;4.63;;
7205;SDS011;3644;53.480;10.004;2023-10-31T04:14:03;5.80;;;4.50;;
7205;SDS011;3644;53.480;10.004;2023-10-31T04:16:29;7.37;;;5.40;;
7205;SDS011;3644;53.480;10.004;2023-10-31T04:18:54;7.47;;;4.60;;
7205;SDS011;3644;53.480;10.004;2023-10-31T04:21:20;4.00;;;3.60;;
7205;SDS011;3644;53.480;10.004;2023-10-31T04:23:45;11.23;;;4.97;;
7205;SDS011;3644;53.480;10.004;2023-10-31T04:26:11;3.97;;;3.67;;
7205;SDS011;3644;53.480;10.004;2023-10-31T04:28:36;5.43;;;4.17;;
7205;SDS011;3644;53.480;10.004;2023-10-31T04:31:02;10.70;;;4.93;;
7205;SDS011;3644;53.480;10.004;2023-10-31T04:33:27;5.90;;;4.20;;
7205;SDS011;3644;53.480;10.004;2023-10-31T04:35:53;11.40;;;3.83;;
7205;SDS011;3644;53.480;10.004;2023-10-31T04:38:19;5.10;;;4.50;;
7205;SDS011;3644;53.480;10.004;2023-10-31T04:40:44;8.47;;;4.40;;
7205;SDS011;3644;53.480;10.004;2023-10-31T04:43:10;5.40;;;4.13;;
7205;SDS011;3644;53.480;10.004;2023-10-31T04:45:35;7.27;;;4.30;;
7205;SDS011;3644;53.480;10.004;2023-10-31T04:48:01;5.80;;;4.17;;
7205;SDS011;3644;53.480;10.004;2023-10-31T04:50:26;5.90;;;4.70;;
7205;SDS011;3644;53.480;10.004;2023-10-31T04:52:52;6.13;;;4.73;;
7205;SDS011;3644;53.480;10.004;2023-10-31T04:55:17;4.93;;;4.30;;
7205;SDS011;3644;53.480;10.004;2023-10-31T04:57:43;7.30;;;4.90;;
7205;SDS011;3644;53.480;10.004;2023-10-31T05:00:09;5.00;;;4.50;;
7205;SDS011;3644;53.480;10.004;2023-10-31T05:02:35;5.90;;;4.70;;
7205;SDS011;3644;53.480;10.004;2023-10-31T05:05:00;4.60;;;4.07;;
7205;SDS011;3644;53.480;10.004;2023-10-31T05:07:26;5.50;;;5.00;;
7205;SDS011;3644;53.480;10.004;2023-10-31T05:09:52;6.27;;;4.40;;
7205;SDS011;3644;53.480;10.004;2023-10-31T05:12:18;6.37;;;4.47;;
7205;SDS011;3644;53.480;10.004;2023-10-31T05:14:44;5.63;;;4.50;;
7205;SDS011;3644;53.480;10.004;2023-10-31T05:17:09;5.40;;;4.90;;
7205;SDS011;3644;53.480;10.004;2023-10-31T05:19:35;5.40;;;4.90;;
7205;SDS011;3644;53.480;10.004;2023-10-31T05:22:00;6.60;;;5.40;;
7205;SDS011;3644;53.480;10.004;2023-10-31T05:24:26;5.77;;;5.17;;
7205;SDS011;3644;53.480;10.004;2023-10-31T05:26:51;6.77;;;5.57;;
7205;SDS011;3644;53.480;10.004;2023-10-31T05:29:17;5.67;;;4.73;;
7205;SDS011;3644;53.480;10.004;2023-10-31T05:31:42;5.20;;;4.70;;
7205;SDS011;3644;53.480;10.004;2023-10-31T05:34:08;6.90;;;5.80;;
7205;SDS011;3644;53.480;10.004;2023-10-31T05:36:34;6.60;;;5.70;;
7205;SDS011;3644;53.480;10.004;2023-10-31T05:38:59;6.43;;;4.77;;
7205;SDS011;3644;53.480;10.004;2023-10-31T05:41:25;6.03;;;5.33;;
7205;SDS011;3644;53.480;10.004;2023-10-31T05:43:50;5.80;;;5.20;;
7205;SDS011;3644;53.480;10.004;2023-10-31T05:46:16;6.40;;;5.67;;
7205;SDS011;3644;53.480;10.004;2023-10-31T05:48:43;9.77;;;6.37;;
7205;SDS011;3644;53.480;10.004;2023-10-31T05:51:17;7.00;;;5.40;;
7205;SDS011;3644;53.480;10.004;2023-10-31T05:53:45;6.03;;;5.10;;
7205;SDS011;3644;53.480;10.004;2023-10-31T05:56:13;6.43;;;5.57;;
7205;SDS011;3644;53.480;10.004;2023-10-31T05:58:40;12.93;;;6.73;;
7205;SDS011;3644;53.480;10.004;2023-10-31T06:01:06;6.90;;;6.20;;
7205;SDS011;3644;53.480;10.004;2023-10-31T06:03:35;8.93;;;6.13;;
7205;SDS011;3644;53.480;10.004;2023-10-31T06:06:00;9.43;;;7.17;;
7205;SDS011;3644;53.480;10.004;2023-10-31T06:08:26;14.53;;;7.23;;
7205;SDS011;3644;53.480;10.004;2023-10-31T06:10:55;7.70;;;6.40;;
7205;SDS011;3644;53.480;10.004;2023-10-31T06:13:21;9.20;;;6.60;;
7205;SDS011;3644;53.480;10.004;2023-10-31T06:15:47;6.20;;;5.60;;
7205;SDS011;3644;53.480;10.004;2023-10-31T06:18:13;7.13;;;6.37;;
7205;SDS011;3644;53.480;10.004;2023-10-31T06:20:38;7.60;;;6.80;;
7205;SDS011;3644;53.480;10.004;2023-10-31T06:23:04;9.20;;;6.73;;
7205;SDS011;3644;53.480;10.004;2023-10-31T06:25:30;8.33;;;6.40;;
7205;SDS011;3644;53.480;10.004;2023-10-31T06:27:55;8.83;;;6.27;;
7205;SDS011;3644;53.480;10.004;2023-10-31T06:30:21;7.13;;;6.10;;
7205;SDS011;3644;53.480;10.004;2023-10-31T06:32:46;9.30;;;6.57;;
7205;SDS011;3644;53.480;10.004;2023-10-31T06:35:12;8.40;;;6.50;;
7205;SDS011;3644;53.480;10.004;2023-10-31T06:37:38;6.67;;;5.50;;
7205;SDS011;3644;53.480;10.004;2023-10-31T06:40:04;6.17;;;5.57;;
7205;SDS011;3644;53.480;10.004;2023-10-31T06:42:30;5.03;;;4.37;;
7205;SDS011;3644;53.480;10.004;2023-10-31T06:44:56;8.07;;;4.40;;
7205;SDS011;3644;53.480;10.004;2023-10-31T06:47:21;4.10;;;3.70;;
7205;SDS011;3644;53.480;10.004;2023-10-31T06:49:47;3.40;;;3.10;;
7205;SDS011;3644;53.480;10.004;2023-10-31T06:52:12;2.90;;;2.27;;
7205;SDS011;3644;53.480;10.004;2023-10-31T06:54:37;2.70;;;2.50;;
7205;SDS011;3644;53.480;10.004;2023-10-31T06:57:03;1.93;;;1.80;;
7205;SDS011;3644;53.480;10.004;2023-10-31T06:59:29;7.93;;;1.83;;
7205;SDS011;3644;53.480;10.004;2023-10-31T07:01:54;2.23;;;2.03;;
7205;SDS011;3644;53.480;10.004;2023-10-31T07:04:20;2.30;;;1.67;;
7205;SDS011;3644;53.480;10.004;2023-10-31T07:06:46;3.97;;;3.67;;
7205;SDS011;3644;53.480;10.004;2023-10-31T07:09:11;6.23;;;4.63;;
7205;SDS011;3644;53.480;10.004;2023-10-31T07:11:37;8.13;;;6.30;;
7205;SDS011;3644;53.480;10.004;2023-10-31T07:14:02;7.77;;;6.50;;
7205;SDS011;3644;53.480;10.004;2023-10-31T07:16:28;9.37;;;6.93;;
7205;SDS011;3644;53.480;10.004;2023-10-31T07:18:54;6.73;;;5.73;;
7205;SDS011;3644;53.480;10.004;2023-10-31T07:21:20;9.70;;;7.47;;
7205;SDS011;3644;53.480;10.004;2023-10-31T07:23:45;10.00;;;6.43;;
7205;SDS011;3644;53.480;10.004;2023-10-31T07:26:11;9.20;;;6.87;;
7205;SDS011;3644;53.480;10.004;2023-10-31T07:28:36;13.27;;;8.80;;
7205;SDS011;3644;53.480;10.004;2023-10-31T07:31:02;10.33;;;7.67;;
7205;SDS011;3644;53.480;10.004;2023-10-31T07:33:29;10.50;;;7.63;;
7205;SDS011;3644;53.480;10.004;2023-10-31T07:35:55;9.60;;;7.80;;
7205;SDS011;3644;53.480;10.004;2023-10-31T07:38:20;10.30;;;7.10;;
7205;SDS011;3644;53.480;10.004;2023-10-31T07:40:46;5.87;;;5.27;;
7205;SDS011;3644;53.480;10.004;2023-10-31T07:43:12;6.30;;;5.70;;
7205;SDS011;3644;53.480;10.004;2023-10-31T07:45:38;6.03;;;5.23;;
7205;SDS011;3644;53.480;10.004;2023-10-31T07:48:03;8.03;;;4.97;;
7205;SDS011;3644;53.480;10.004;2023-10-31T07:50:29;3.63;;;3.33;;
7205;SDS011;3644;53.480;10.004;2023-10-31T07:52:55;2.57;;;2.37;;
7205;SDS011;3644;53.480;10.004;2023-10-31T07:55:20;1.53;;;1.53;;
7205;SDS011;3644;53.480;10.004;2023-10-31T07:57:45;1.93;;;1.73;;
7205;SDS011;3644;53.480;10.004;2023-10-31T08:00:11;1.90;;;1.67;;
7205;SDS011;3644;53.480;10.004;2023-10-31T08:02:37;1.13;;;1.13;;
7205;SDS011;3644;53.480;10.004;2023-10-31T08:05:03;1.00;;;1.00;;
7205;SDS011;3644;53.480;10.004;2023-10-31T08:07:29;1.00;;;0.87;;
7205;SDS011;3644;53.480;10.004;2023-10-31T08:09:55;3.63;;;1.07;;
7205;SDS011;3644;53.480;10.004;2023-10-31T08:12:21;0.97;;;0.97;;
7205;SDS011;3644;53.480;10.004;2023-10-31T08:14:47;7.20;;;1.10;;
7205;SDS011;3644;53.480;10.004;2023-10-31T08:17:13;1.07;;;1.00;;
7205;SDS011;3644;53.480;10.004;2023-10-31T08:19:38;0.80;;;0.80;;
7205;SDS011;3644;53.480;10.004;2023-10-31T08:22:03;0.80;;;0.80;;
7205;SDS011;3644;53.480;10.004;2023-10-31T08:24:29;1.07;;;0.90;;
7205;SDS011;3644;53.480;10.004;2023-10-31T08:26:54;0.80;;;0.80;;
7205;SDS011;3644;53.480;10.004;2023-10-31T08:29:20;0.90;;;0.90;;
7205;SDS011;3644;53.480;10.004;2023-10-31T08:31:46;0.83;;;0.83;;
7205;SDS011;3644;53.480;10.004;2023-10-31T08:34:11;1.57;;;1.00;;
7205;SDS011;3644;53.480;10.004;2023-10-31T08:36:37;1.10;;;1.00;;
7205;SDS011;3644;53.480;10.004;2023-10-31T08:39:03;0.80;;;0.80;;
7205;SDS011;3644;53.480;10.004;2023-10-31T08:41:28;0.70;;;0.70;;
7205;SDS011;3644;53.480;10.004;2023-10-31T08:43:54;1.23;;;0.87;;
7205;SDS011;3644;53.480;10.004;2023-10-31T08:46:19;0.80;;;0.80;;
7205;SDS011;3644;53.480;10.004;2023-10-31T08:48:45;0.80;;;0.80;;
7205;SDS011;3644;53.480;10.004;2023-10-31T08:51:10;2.30;;;0.80;;
7205;SDS011;3644;53.480;10.004;2023-10-31T08:53:36;0.80;;;0.80;;
7205;SDS011;3644;53.480;10.004;2023-10-31T08:56:01;0.73;;;0.73;;
7205;SDS011;3644;53.480;10.004;2023-10-31T08:58:27;0.70;;;0.70;;
7205;SDS011;3644;53.480;10.004;2023-10-31T09:00:54;0.80;;;0.80;;
7205;SDS011;3644;53.480;10.004;2023-10-31T09:03:19;0.80;;;0.80;;
7205;SDS011;3644;53.480;10.004;2023-10-31T09:05:45;0.80;;;0.80;;
7205;SDS011;3644;53.480;10.004;2023-10-31T09:08:10;0.80;;;0.80;;
7205;SDS011;3644;53.480;10.004;2023-10-31T09:10:36;7.93;;;0.90;;
7205;SDS011;3644;53.480;10.004;2023-10-31T09:13:06;0.70;;;0.70;;
7205;SDS011;3644;53.480;10.004;2023-10-31T09:15:31;0.80;;;0.80;;
7205;SDS011;3644;53.480;10.004;2023-10-31T09:17:57;0.70;;;0.70;;
7205;SDS011;3644;53.480;10.004;2023-10-31T09:20:22;0.90;;;0.90;;
7205;SDS011;3644;53.480;10.004;2023-10-31T09:22:48;0.80;;;0.80;;
7205;SDS011;3644;53.480;10.004;2023-10-31T09:25:13;0.87;;;0.87;;
7205;SDS011;3644;53.480;10.004;2023-10-31T09:27:40;5.60;;;0.80;;
7205;SDS011;3644;53.480;10.004;2023-10-31T09:30:06;0.70;;;0.70;;
7205;SDS011;3644;53.480;10.004;2023-10-31T09:32:32;1.33;;;0.90;;
7205;SDS011;3644;53.480;10.004;2023-10-31T09:34:57;1.23;;;0.80;;
7205;SDS011;3644;53.480;10.004;2023-10-31T09:37:23;0.80;;;0.80;;
7205;SDS011;3644;53.480;10.004;2023-10-31T09:39:49;1.07;;;1.07;;
7205;SDS011;3644;53.480;10.004;2023-10-31T09:42:14;1.00;;;1.00;;
7205;SDS011;3644;53.480;10.004;2023-10-31T09:44:40;1.10;;;1.10;;
7205;SDS011;3644;53.480;10.004;2023-10-31T09:47:06;1.83;;;1.23;;
7205;SDS011;3644;53.480;10.004;2023-10-31T09:49:31;0.97;;;0.90;;
7205;SDS011;3644;53.480;10.004;2023-10-31T09:51:57;1.10;;;1.00;;
7205;SDS011;3644;53.480;10.004;2023-10-31T09:54:24;1.20;;;1.10;;
7205;SDS011;3644;53.480;10.004;2023-10-31T09:56:51;1.00;;;1.00;;
7205;SDS011;3644;53.480;10.004;2023-10-31T09:59:16;1.63;;;0.90;;
7205;SDS011;3644;53.480;10.004;2023-10-31T10:01:42;2.70;;;0.90;;
7205;SDS011;3644;53.480;10.004;2023-10-31T10:04:08;1.13;;;1.07;;
7205;SDS011;3644;53.480;10.004;2023-10-31T10:06:34;1.20;;;1.10;;
7205;SDS011;3644;53.480;10.004;2023-10-31T10:08:59;1.07;;;1.00;;
7205;SDS011;3644;53.480;10.004;2023-10-31T10:11:28;1.43;;;1.00;;
7205;SDS011;3644;53.480;10.004;2023-10-31T10:13:54;4.00;;;1.17;;
7205;SDS011;3644;53.480;10.004;2023-10-31T10:16:31;1.00;;;1.00;;
7205;SDS011;3644;53.480;10.004;2023-10-31T10:18:59;0.90;;;0.90;;
7205;SDS011;3644;53.480;10.004;2023-10-31T10:21:56;1.33;;;1.20;;
7205;SDS011;3644;53.480;10.004;2023-10-31T10:24:23;1.37;;;1.10;;
7205;SDS011;3644;53.480;10.004;2023-10-31T10:26:49;0.90;;;0.90;;
7205;SDS011;3644;53.480;10.004;2023-10-31T10:29:16;1.20;;;1.10;;
7205;SDS011;3644;53.480;10.004;2023-10-31T10:31:41;1.63;;;1.00;;
7205;SDS011;3644;53.480;10.004;2023-10-31T10:34:08;1.00;;;1.00;;
7205;SDS011;3644;53.480;10.004;2023-10-31T10:36:34;1.70;;;0.90;;
7205;SDS011;3644;53.480;10.004;2023-10-31T10:39:00;1.60;;;1.50;;
7205;SDS011;3644;53.480;10.004;2023-10-31T10:41:26;3.80;;;1.23;;
7205;SDS011;3644;53.480;10.004;2023-10-31T10:43:56;1.63;;;1.30;;
7205;SDS011;3644;53.480;10.004;2023-10-31T10:46:25;2.30;;;1.30;;
7205;SDS011;3644;53.480;10.004;2023-10-31T10:48:55;1.80;;;0.90;;
7205;SDS011;3644;53.480;10.004;2023-10-31T10:51:29;1.17;;;1.17;;
7205;SDS011;3644;53.480;10.004;2023-10-31T10:54:23;8.00;;;1.83;;
7205;SDS011;3644;53.480;10.004;2023-10-31T10:57:14;2.30;;;1.40;;
7205;SDS011;3644;53.480;10.004;2023-10-31T10:59:48;2.33;;;2.13;;
7205;SDS011;3644;53.480;10.004;2023-10-31T11:02:17;4.67;;;2.03;;
7205;SDS011;3644;53.480;10.004;2023-10-31T11:04:43;1.73;;;1.63;;
7205;SDS011;3644;53.480;10.004;2023-10-31T11:07:09;3.33;;;1.70;;
7205;SDS011;3644;53.480;10.004;2023-10-31T11:09:35;1.50;;;1.40;;
7205;SDS011;3644;53.480;10.004;2023-10-31T11:12:02;2.60;;;1.37;;
7205;SDS011;3644;53.480;10.004;2023-10-31T11:14:28;1.40;;;1.30;;
7205;SDS011;3644;53.480;10.004;2023-10-31T11:16:57;1.13;;;1.13;;
7205;SDS011;3644;53.480;10.004;2023-10-31T11:19:27;3.23;;;1.13;;
7205;SDS011;3644;53.480;10.004;2023-10-31T11:22:03;1.73;;;1.57;;
7205;SDS011;3644;53.480;10.004;2023-10-31T11:24:30;1.63;;;1.57;;
7205;SDS011;3644;53.480;10.004;2023-10-31T11:27:01;2.83;;;1.47;;
7205;SDS011;3644;53.480;10.004;2023-10-31T11:29:27;1.00;;;1.00;;
7205;SDS011;3644;53.480;10.004;2023-10-31T11:31:55;1.23;;;1.23;;
7205;SDS011;3644;53.480;10.004;2023-10-31T11:34:21;0.90;;;0.90;;
7205;SDS011;3644;53.480;10.004;2023-10-31T11:36:47;2.43;;;1.50;;
7205;SDS011;3644;53.480;10.004;2023-10-31T11:39:17;1.10;;;0.97;;
7205;SDS011;3644;53.480;10.004;2023-10-31T11:41:54;1.00;;;1.00;;
7205;SDS011;3644;53.480;10.004;2023-10-31T11:44:26;1.00;;;1.00;;
7205;SDS011;3644;53.480;10.004;2023-10-31T11:46:52;1.03;;;0.93;;
7205;SDS011;3644;53.480;10.004;2023-10-31T11:49:45;1.20;;;1.10;;
7205;SDS011;3644;53.480;10.004;2023-10-31T11:52:16;1.07;;;0.90;;
7205;SDS011;3644;53.480;10.004;2023-10-31T11:54:42;2.83;;;0.80;;
7205;SDS011;3644;53.480;10.004;2023-10-31T11:57:08;1.07;;;0.97;;
7205;SDS011;3644;53.480;10.004;2023-10-31T11:59:37;0.80;;;0.80;;
7205;SDS011;3644;53.480;10.004;2023-10-31T12:02:15;0.90;;;0.90;;
7205;SDS011;3644;53.480;10.004;2023-10-31T12:04:41;1.37;;;1.30;;
7205;SDS011;3644;53.480;10.004;2023-10-31T12:07:07;2.10;;;0.80;;
7205;SDS011;3644;53.480;10.004;2023-10-31T12:09:33;1.17;;;1.07;;
7205;SDS011;3644;53.480;10.004;2023-10-31T12:12:11;1.03;;;0.90;;
7205;SDS011;3644;53.480;10.004;2023-10-31T12:14:37;1.37;;;1.00;;
7205;SDS011;3644;53.480;10.004;2023-10-31T12:17:07;1.00;;;0.90;;
7205;SDS011;3644;53.480;10.004;2023-10-31T12:19:34;2.97;;;0.97;;
7205;SDS011;3644;53.480;10.004;2023-10-31T12:22:01;2.40;;;1.30;;
7205;SDS011;3644;53.480;10.004;2023-10-31T12:24:27;1.20;;;1.20;;
7205;SDS011;3644;53.480;10.004;2023-10-31T12:26:53;1.57;;;1.20;;
7205;SDS011;3644;53.480;10.004;2023-10-31T12:29:20;0.90;;;0.90;;
7205;SDS011;3644;53.480;10.004;2023-10-31T12:31:53;2.93;;;1.10;;
7205;SDS011;3644;53.480;10.004;2023-10-31T12:34:19;1.37;;;1.27;;
7205;SDS011;3644;53.480;10.004;2023-10-31T12:36:47;7.60;;;1.20;;
7205;SDS011;3644;53.480;10.004;2023-10-31T12:39:14;1.20;;;1.20;;
7205;SDS011;3644;53.480;10.004;2023-10-31T12:41:41;1.23;;;1.23;;
7205;SDS011;3644;53.480;10.004;2023-10-31T12:44:08;1.67;;;1.30;;
7205;SDS011;3644;53.480;10.004;2023-10-31T12:46:35;1.63;;;1.13;;
7205;SDS011;3644;53.480;10.004;2023-10-31T12:49:04;2.10;;;1.10;;
7205;SDS011;3644;53.480;10.004;2023-10-31T12:51:35;1.47;;;1.30;;
7205;SDS011;3644;53.480;10.004;2023-10-31T12:54:01;1.57;;;1.00;;
7205;SDS011;3644;53.480;10.004;2023-10-31T12:56:38;1.00;;;1.00;;
7205;SDS011;3644;53.480;10.004;2023-10-31T12:59:05;1.50;;;0.97;;
7205;SDS011;3644;53.480;10.004;2023-10-31T13:01:35;3.03;;;1.10;;
7205;SDS011;3644;53.480;10.004;2023-10-31T13:04:02;3.37;;;1.17;;
7205;SDS011;3644;53.480;10.004;2023-10-31T13:06:28;0.90;;;0.90;;
7205;SDS011;3644;53.480;10.004;2023-10-31T13:08:57;0.90;;;0.90;;
7205;SDS011;3644;53.480;10.004;2023-10-31T13:11:23;1.43;;;1.00;;
7205;SDS011;3644;53.480;10.004;2023-10-31T13:13:53;1.83;;;1.30;;
7205;SDS011;3644;53.480;10.004;2023-10-31T13:16:19;3.30;;;0.93;;
7205;SDS011;3644;53.480;10.004;2023-10-31T13:18:45;2.43;;;1.10;;
7205;SDS011;3644;53.480;10.004;2023-10-31T13:21:10;1.87;;;1.10;;
7205;SDS011;3644;53.480;10.004;2023-10-31T13:23:37;3.80;;;1.20;;
7205;SDS011;3644;53.480;10.004;2023-10-31T13:26:03;2.60;;;1.43;;
7205;SDS011;3644;53.480;10.004;2023-10-31T13:28:29;1.60;;;1.00;;
7205;SDS011;3644;53.480;10.004;2023-10-31T13:30:57;1.60;;;1.10;;
7205;SDS011;3644;53.480;10.004;2023-10-31T13:33:22;8.10;;;2.53;;
7205;SDS011;3644;53.480;10.004;2023-10-31T13:35:48;21.63;;;7.20;;
7205;SDS011;3644;53.480;10.004;2023-10-31T13:38:13;27.07;;;10.40;;
7205;SDS011;3644;53.480;10.004;2023-10-31T13:40:39;40.27;;;14.57;;
7205;SDS011;3644;53.480;10.004;2023-10-31T13:43:05;19.63;;;7.80;;
7205;SDS011;3644;53.480;10.004;2023-10-31T13:45:30;17.47;;;7.03;;
7205;SDS011;3644;53.480;10.004;2023-10-31T13:47:56;13.30;;;5.63;;
7205;SDS011;3644;53.480;10.004;2023-10-31T13:50:21;13.33;;;5.10;;
7205;SDS011;3644;53.480;10.004;2023-10-31T13:52:48;7.80;;;4.47;;
7205;SDS011;3644;53.480;10.004;2023-10-31T13:55:14;11.07;;;7.00;;
7205;SDS011;3644;53.480;10.004;2023-10-31T13:57:39;5.73;;;4.80;;
7205;SDS011;3644;53.480;10.004;2023-10-31T14:00:05;3.47;;;3.17;;
7205;SDS011;3644;53.480;10.004;2023-10-31T14:02:33;2.57;;;2.37;;
7205;SDS011;3644;53.480;10.004;2023-10-31T14:05:00;4.63;;;1.87;;
7205;SDS011;3644;53.480;10.004;2023-10-31T14:07:26;3.43;;;1.83;;
7205;SDS011;3644;53.480;10.004;2023-10-31T14:09:52;2.00;;;1.80;;
7205;SDS011;3644;53.480;10.004;2023-10-31T14:12:17;4.57;;;1.90;;
7205;SDS011;3644;53.480;10.004;2023-10-31T14:14:43;2.90;;;2.60;;
7205;SDS011;3644;53.480;10.004;2023-10-31T14:17:12;6.00;;;2.80;;
7205;SDS011;3644;53.480;10.004;2023-10-31T14:19:38;2.60;;;1.57;;
7205;SDS011;3644;53.480;10.004;2023-10-31T14:22:04;1.43;;;1.30;;
7205;SDS011;3644;53.480;10.004;2023-10-31T14:24:30;1.73;;;1.63;;
7205;SDS011;3644;53.480;10.004;2023-10-31T14:26:57;2.20;;;1.50;;
7205;SDS011;3644;53.480;10.004;2023-10-31T14:29:24;1.93;;;1.60;;
7205;SDS011;3644;53.480;10.004;2023-10-31T14:31:49;1.90;;;1.20;;
7205;SDS011;3644;53.480;10.004;2023-10-31T14:34:15;0.97;;;0.97;;
7205;SDS011;3644;53.480;10.004;2023-10-31T14:36:40;1.47;;;1.37;;
7205;SDS011;3644;53.480;10.004;2023-10-31T14:39:06;4.10;;;1.17;;
7205;SDS011;3644;53.480;10.004;2023-10-31T14:41:33;2.33;;;1.60;;
7205;SDS011;3644;53.480;10.004;2023-10-31T14:43:59;2.60;;;1.60;;
7205;SDS011;3644;53.480;10.004;2023-10-31T14:46:26;4.80;;;1.83;;
7205;SDS011;3644;53.480;10.004;2023-10-31T14:48:52;2.00;;;1.60;;
7205;SDS011;3644;53.480;10.004;2023-10-31T14:51:17;1.60;;;1.10;;
7205;SDS011;3644;53.480;10.004;2023-10-31T14:53:43;1.27;;;1.20;;
7205;SDS011;3644;53.480;10.004;2023-10-31T14:56:09;1.40;;;1.20;;